createdAt,value
2022-11-18T00:01:37.208Z,0.33
2022-11-18T00:04:07.278Z,0.37
2022-11-18T00:06:39.833Z,0.47
2022-11-18T00:09:10.135Z,0.57
2022-11-18T00:11:58.977Z,0.48
2022-11-18T00:14:29.074Z,0.53
2022-11-18T00:17:07.488Z,0.42
2022-11-18T00:19:40.511Z,0.27
2022-11-18T00:22:14.839Z,0.27
2022-11-18T00:24:47.646Z,0.30
2022-11-18T00:27:14.900Z,0.24
2022-11-18T00:29:44.782Z,0.22
2022-11-18T00:32:14.778Z,0.15
2022-11-18T00:34:45.013Z,0.13
2022-11-18T00:37:12.668Z,0.29
2022-11-18T00:39:42.783Z,0.23
2022-11-18T00:42:33.294Z,0.17
2022-11-18T00:45:02.005Z,0.19
2022-11-18T00:47:31.801Z,0.05
2022-11-18T00:50:01.689Z,0.11
2022-11-18T00:52:31.744Z,0.20
2022-11-18T00:55:04.819Z,0.16
2022-11-18T00:57:34.612Z,0.22
2022-11-18T01:00:05.628Z,0.21
2022-11-18T01:02:34.542Z,0.14
2022-11-18T01:05:05.551Z,0.11
2022-11-18T01:07:34.134Z,0.13
2022-11-18T01:10:04.658Z,0.08
2022-11-18T01:12:54.504Z,0.12
2022-11-18T01:15:24.651Z,0.17
2022-11-18T01:17:54.588Z,0.06
2022-11-18T01:20:24.225Z,0.13
2022-11-18T01:22:54.238Z,0.03
2022-11-18T01:25:24.154Z,-0.12
2022-11-18T01:27:54.325Z,0.03
2022-11-18T01:30:24.579Z,0.15
2022-11-18T01:32:54.327Z,0.03
2022-11-18T01:35:24.221Z,-0.02
2022-11-18T01:37:54.247Z,-0.05
2022-11-18T01:40:27.617Z,0.03
2022-11-18T01:42:57.756Z,0.08
2022-11-18T01:45:45.078Z,-0.02
2022-11-18T01:48:35.717Z,-0.05
2022-11-18T01:51:16.982Z,-0.14
2022-11-18T01:54:10.110Z,-0.09
2022-11-18T01:56:54.811Z,-0.13
2022-11-18T01:59:33.589Z,-0.01
2022-11-18T02:02:14.020Z,-0.12
2022-11-18T02:04:49.980Z,-0.07
2022-11-18T02:07:21.253Z,-0.07
2022-11-18T02:09:53.235Z,0.04
2022-11-18T02:12:22.193Z,-0.16
2022-11-18T02:14:52.634Z,-0.10
2022-11-18T02:18:04.261Z,-0.08
2022-11-18T02:20:44.290Z,-0.07
2022-11-18T02:24:20.794Z,-0.23
2022-11-18T02:27:47.953Z,-0.10
2022-11-18T02:30:19.819Z,-0.30
2022-11-18T02:33:24.829Z,-0.26
2022-11-18T02:36:09.840Z,-0.33
2022-11-18T02:39:03.276Z,-0.33
2022-11-18T02:41:39.734Z,-0.27
2022-11-18T02:44:18.913Z,-0.16
2022-11-18T02:47:01.415Z,-0.19
2022-11-18T02:50:06.580Z,-0.39
2022-11-18T02:52:44.940Z,-0.33
2022-11-18T02:55:19.437Z,-0.44
2022-11-18T02:57:50.804Z,-0.51
2022-11-18T03:00:21.056Z,-0.56
2022-11-18T03:02:51.389Z,-0.47
2022-11-18T03:06:12.925Z,-0.59
2022-11-18T03:09:01.283Z,-0.53
2022-11-18T03:11:47.354Z,-0.67
2022-11-18T03:14:57.046Z,-0.62
2022-11-18T03:18:20.443Z,-0.78
2022-11-18T03:21:05.934Z,-0.79
2022-11-18T03:24:05.784Z,-0.51
2022-11-18T03:26:48.009Z,-0.73
2022-11-18T03:29:41.309Z,-0.60
2022-11-18T03:32:24.567Z,-0.74
2022-11-18T03:35:20.902Z,-0.77
2022-11-18T03:38:07.540Z,-0.91
2022-11-18T03:40:48.767Z,-0.79
2022-11-18T03:43:29.708Z,-0.82
2022-11-18T03:46:21.787Z,-0.94
2022-11-18T03:48:58.643Z,-1.04
2022-11-18T03:51:56.949Z,-0.93
2022-11-18T03:54:39.216Z,-0.89
2022-11-18T03:57:21.502Z,-0.92
2022-11-18T04:00:07.771Z,-0.83
2022-11-18T04:02:39.884Z,-0.88
2022-11-18T04:05:16.930Z,-0.76
2022-11-18T04:08:13.373Z,-0.98
2022-11-18T04:11:38.073Z,-1.09
2022-11-18T04:14:13.728Z,-1.04
2022-11-18T04:16:45.676Z,-0.98
2022-11-18T04:19:15.868Z,-1.17
2022-11-18T04:21:49.355Z,-1.10
2022-11-18T04:24:19.536Z,-1.05
2022-11-18T04:26:49.570Z,-1.07
2022-11-18T04:29:19.856Z,-1.04
2022-11-18T04:31:50.365Z,-1.03
2022-11-18T04:34:20.557Z,-1.19
2022-11-18T04:36:50.744Z,-1.13
2022-11-18T04:39:21.141Z,-1.21
2022-11-18T04:41:57.174Z,-1.21
2022-11-18T04:44:33.212Z,-1.13
2022-11-18T04:47:07.083Z,-1.24
2022-11-18T04:49:37.316Z,-1.29
2022-11-18T04:52:07.761Z,-1.29
2022-11-18T04:54:37.905Z,-1.40
2022-11-18T04:57:07.957Z,-1.40
2022-11-18T04:59:38.370Z,-1.17
2022-11-18T05:02:08.674Z,-1.18
2022-11-18T05:04:38.798Z,-1.19
2022-11-18T05:07:09.016Z,-1.30
2022-11-18T05:09:39.138Z,-1.46
2022-11-18T05:12:37.771Z,-1.44
2022-11-18T05:15:06.358Z,-1.49
2022-11-18T05:17:36.428Z,-1.24
2022-11-18T05:20:06.110Z,-1.46
2022-11-18T05:22:33.884Z,-1.40
2022-11-18T05:25:02.842Z,-1.39
2022-11-18T05:27:30.708Z,-1.48
2022-11-18T05:29:59.073Z,-1.55
2022-11-18T05:32:27.371Z,-1.54
2022-11-18T05:34:55.757Z,-1.65
2022-11-18T05:37:24.221Z,-1.59
2022-11-18T05:39:52.571Z,-1.45
2022-11-18T05:42:39.784Z,-1.48
2022-11-18T05:45:10.224Z,-1.57
2022-11-18T05:47:59.910Z,-1.60
2022-11-18T05:50:29.967Z,-1.55
2022-11-18T05:52:58.447Z,-1.52
2022-11-18T05:56:08.185Z,-1.60
2022-11-18T05:58:38.301Z,-1.68
2022-11-18T06:01:15.683Z,-1.49
2022-11-18T06:03:46.212Z,-1.63
2022-11-18T06:06:23.079Z,-1.48
2022-11-18T06:09:07.379Z,-1.52
2022-11-18T06:11:50.199Z,-1.58
2022-11-18T06:14:48.606Z,-1.67
2022-11-18T06:17:29.617Z,-1.70
2022-11-18T06:20:00.740Z,-1.81
2022-11-18T06:22:31.553Z,-1.82
2022-11-18T06:25:03.777Z,-1.67
2022-11-18T06:27:35.579Z,-1.57
2022-11-18T06:30:05.346Z,-1.63
2022-11-18T06:32:32.967Z,-1.53
2022-11-18T06:35:01.437Z,-1.69
2022-11-18T06:37:29.740Z,-1.71
2022-11-18T06:39:58.139Z,-1.73
2022-11-18T06:42:47.177Z,-1.76
2022-11-18T06:45:17.624Z,-1.75
2022-11-18T06:47:47.934Z,-1.65
2022-11-18T06:50:18.287Z,-1.62
2022-11-18T06:52:48.369Z,-1.65
2022-11-18T06:55:18.991Z,-1.54
2022-11-18T06:57:49.142Z,-1.64
2022-11-18T07:00:19.710Z,-1.77
2022-11-18T07:02:49.879Z,-1.93
2022-11-18T07:05:20.003Z,-1.88
2022-11-18T07:07:50.164Z,-1.82
2022-11-18T07:10:20.680Z,-1.78
2022-11-18T07:12:50.871Z,-1.86
2022-11-18T07:15:21.034Z,-1.92
2022-11-18T07:17:51.181Z,-1.98
2022-11-18T07:20:21.364Z,-2.07
2022-11-18T07:22:54.024Z,-2.16
2022-11-18T07:25:24.167Z,-2.03
2022-11-18T07:27:54.184Z,-2.23
2022-11-18T07:30:24.210Z,-2.21
2022-11-18T07:32:54.376Z,-2.27
2022-11-18T07:35:24.450Z,-2.31
2022-11-18T07:37:54.512Z,-2.27
2022-11-18T07:40:24.560Z,-2.34
2022-11-18T07:42:54.800Z,-2.33
2022-11-18T07:45:25.651Z,-2.45
2022-11-18T07:47:55.743Z,-2.30
2022-11-18T07:50:25.852Z,-2.23
2022-11-18T07:52:58.376Z,-2.13
2022-11-18T07:55:32.134Z,-2.15
2022-11-18T07:58:02.518Z,-2.27
2022-11-18T08:00:32.581Z,-2.14
2022-11-18T08:03:02.624Z,-1.90
2022-11-18T08:05:32.803Z,-1.80
2022-11-18T08:08:03.018Z,-1.80
2022-11-18T08:10:33.162Z,-1.83
2022-11-18T08:13:03.774Z,-1.95
2022-11-18T08:15:33.836Z,-1.73
2022-11-18T08:18:02.276Z,-1.68
2022-11-18T08:20:30.707Z,-1.64
2022-11-18T08:22:59.231Z,-1.75
2022-11-18T08:25:27.871Z,-1.64
2022-11-18T08:34:58.063Z,-1.55
2022-11-18T08:37:28.180Z,-1.50
2022-11-18T08:39:58.237Z,-1.55
2022-11-18T08:42:33.935Z,-1.68
2022-11-18T08:45:10.970Z,-1.43
2022-11-18T08:47:41.721Z,-1.48
2022-11-18T08:50:12.669Z,-1.41
2022-11-18T08:52:40.975Z,-1.32
2022-11-18T08:55:09.588Z,-1.38
2022-11-18T08:57:37.697Z,-1.18
2022-11-18T09:00:08.375Z,-1.33
2022-11-18T09:02:38.408Z,-1.44
2022-11-18T09:05:08.887Z,-1.43
2022-11-18T09:07:39.025Z,-1.60
2022-11-18T09:10:09.884Z,-1.47
2022-11-18T09:12:40.008Z,-1.34
2022-11-18T09:15:13.844Z,-1.37
2022-11-18T09:17:44.780Z,-1.25
2022-11-18T09:20:14.941Z,-1.27
2022-11-18T09:22:45.060Z,-1.37
2022-11-18T09:25:16.195Z,-1.49
2022-11-18T09:27:47.818Z,-1.47
2022-11-18T09:30:17.904Z,-1.33
2022-11-18T09:32:48.316Z,-1.51
2022-11-18T09:35:18.424Z,-1.64
2022-11-18T09:37:48.600Z,-1.76
2022-11-18T09:40:19.525Z,-1.83
2022-11-18T09:43:17.559Z,-1.71
2022-11-18T09:46:03.749Z,-1.70
2022-11-18T09:48:56.675Z,-1.73
2022-11-18T09:51:40.062Z,-1.74
2022-11-18T09:54:21.828Z,-1.85
2022-11-18T09:56:55.757Z,-1.82
2022-11-18T09:59:31.416Z,-1.80
2022-11-18T10:03:01.692Z,-2.01
2022-11-18T10:06:07.317Z,-2.14
2022-11-18T10:09:03.117Z,-1.96
2022-11-18T10:12:21.764Z,-1.67
2022-11-18T10:15:53.345Z,-1.62
2022-11-18T10:19:14.816Z,-1.82
2022-11-18T10:22:24.069Z,-1.72
2022-11-18T10:25:01.484Z,-1.67
2022-11-18T10:27:42.059Z,-1.65
2022-11-18T10:30:26.633Z,-1.52
2022-11-18T10:33:19.260Z,-1.53
2022-11-18T10:35:50.654Z,-1.54
2022-11-18T10:38:21.327Z,-1.52
2022-11-18T10:41:01.608Z,-1.64
2022-11-18T10:43:56.098Z,-1.79
2022-11-18T10:46:34.893Z,-1.67
2022-11-18T10:49:10.662Z,-1.86
2022-11-18T10:52:16.197Z,-1.76
2022-11-18T10:55:06.594Z,-1.86
2022-11-18T10:57:43.692Z,-1.91
2022-11-18T11:00:47.584Z,-1.83
2022-11-18T11:03:35.862Z,-1.72
2022-11-18T11:06:26.974Z,-1.80
2022-11-18T11:09:26.417Z,-1.76
2022-11-18T11:12:24.183Z,-1.81
2022-11-18T11:15:01.939Z,-1.91
2022-11-18T11:17:45.786Z,-2.02
2022-11-18T11:20:24.516Z,-2.09
2022-11-18T11:22:56.300Z,-1.96
2022-11-18T11:28:59.311Z,-1.86
2022-11-18T11:31:44.768Z,-1.89
2022-11-18T11:34:34.062Z,-2.10
2022-11-18T11:37:47.356Z,-1.91
2022-11-18T11:41:07.450Z,-1.68
2022-11-18T11:44:19.527Z,-1.57
2022-11-18T11:47:49.572Z,-1.77
2022-11-18T11:50:19.683Z,-1.70
2022-11-18T11:53:20.634Z,-1.69
2022-11-18T11:56:18.311Z,-1.63
2022-11-18T11:59:35.040Z,-1.60
2022-11-18T12:02:59.669Z,-1.47
2022-11-18T12:05:40.591Z,-1.34
2022-11-18T12:08:30.828Z,-1.37
2022-11-18T12:11:22.284Z,-1.37
2022-11-18T12:14:39.697Z,-1.52
2022-11-18T12:17:34.008Z,-1.46
2022-11-18T12:20:59.706Z,-1.39
2022-11-18T12:23:33.261Z,-1.49
2022-11-18T12:26:35.253Z,-1.58
2022-11-18T12:29:23.050Z,-1.40
2022-11-18T12:31:58.780Z,-1.39
2022-11-18T12:34:45.112Z,-1.42
2022-11-18T12:37:24.153Z,-1.42
2022-11-18T12:39:58.231Z,-1.23
2022-11-18T12:43:04.523Z,-1.42
2022-11-18T12:45:40.727Z,-1.34
2022-11-18T12:48:34.761Z,-1.40
2022-11-18T12:51:16.450Z,-1.34
2022-11-18T12:53:51.203Z,-1.19
2022-11-18T12:56:37.293Z,-1.20
2022-11-18T12:59:13.787Z,-1.45
2022-11-18T13:01:44.029Z,-1.46
2022-11-18T13:04:20.484Z,-1.38
2022-11-18T13:06:54.236Z,-1.25
2022-11-18T13:09:31.160Z,-1.17
2022-11-18T13:12:18.146Z,-1.34
2022-11-18T13:15:07.211Z,-1.38
2022-11-18T13:17:58.851Z,-1.47
2022-11-18T13:20:36.001Z,-1.46
2022-11-18T13:23:33.909Z,-1.58
2022-11-18T13:26:19.811Z,-1.58
2022-11-18T13:29:26.609Z,-1.69
2022-11-18T13:32:22.868Z,-1.66
2022-11-18T13:35:14.814Z,-1.90
2022-11-18T13:38:02.443Z,-1.87
2022-11-18T13:41:04.384Z,-1.90
2022-11-18T13:43:36.675Z,-1.97
2022-11-18T13:46:22.928Z,-2.06
2022-11-18T13:48:59.774Z,-2.21
2022-11-18T13:51:31.013Z,-2.20
2022-11-18T13:54:01.343Z,-2.14
2022-11-18T13:56:35.274Z,-2.21
2022-11-18T13:59:21.113Z,-2.32
2022-11-18T14:02:00.612Z,-2.30
2022-11-18T14:04:32.957Z,-2.34
2022-11-18T14:07:35.588Z,-2.25
2022-11-18T14:10:11.580Z,-2.21
2022-11-18T14:12:38.751Z,-2.05
2022-11-18T14:15:42.079Z,-2.17
2022-11-18T14:18:34.423Z,-2.14
2022-11-18T14:21:06.044Z,-2.28
2022-11-18T14:23:44.244Z,-2.29
2022-11-18T14:26:33.074Z,-2.22
2022-11-18T14:29:21.541Z,-2.19
2022-11-18T14:32:15.411Z,-2.46
2022-11-18T14:34:46.766Z,-2.57
2022-11-18T14:37:17.454Z,-2.51
2022-11-18T14:39:57.984Z,-2.53
2022-11-18T14:42:28.131Z,-2.53
2022-11-18T14:44:58.118Z,-2.41
2022-11-18T14:47:30.319Z,-2.52
2022-11-18T14:50:00.787Z,-2.51
2022-11-18T14:52:31.058Z,-2.62
2022-11-18T14:55:01.140Z,-2.76
2022-11-18T14:57:31.218Z,-2.42
2022-11-18T15:00:01.272Z,-2.64
2022-11-18T15:02:31.400Z,-2.80
2022-11-18T15:05:01.588Z,-2.61
2022-11-18T15:07:31.700Z,-2.77
2022-11-18T15:10:01.815Z,-2.83
2022-11-18T15:12:31.823Z,-2.72
2022-11-18T15:15:01.939Z,-2.79
2022-11-18T15:17:32.011Z,-2.87
2022-11-18T15:20:02.164Z,-3.00
2022-11-18T15:22:32.284Z,-2.88
2022-11-18T15:25:02.400Z,-2.97
2022-11-18T15:27:32.527Z,-3.09
2022-11-18T15:30:03.580Z,-3.12
2022-11-18T15:32:32.493Z,-3.18
2022-11-18T15:35:02.814Z,-3.18
2022-11-18T15:37:32.862Z,-3.24
2022-11-18T15:40:02.996Z,-3.24
2022-11-18T15:42:36.487Z,-3.33
2022-11-18T15:45:12.415Z,-3.40
2022-11-18T15:47:42.493Z,-3.50
2022-11-18T15:50:12.902Z,-3.53
2022-11-18T15:52:42.899Z,-3.61
2022-11-18T15:55:12.909Z,-3.66
2022-11-18T15:57:42.913Z,-3.70
2022-11-18T16:00:14.393Z,-3.70
2022-11-18T16:02:45.252Z,-3.72
2022-11-18T16:05:15.553Z,-3.72
2022-11-18T16:07:45.667Z,-3.71
2022-11-18T16:10:34.963Z,-3.74
2022-11-18T16:13:06.858Z,-3.76
2022-11-18T16:15:48.254Z,-3.78
2022-11-18T16:18:19.667Z,-3.76
2022-11-18T16:20:51.135Z,-3.76
2022-11-18T16:23:21.109Z,-3.86
2022-11-18T16:25:51.644Z,-3.91
2022-11-18T16:28:21.056Z,-3.92
2022-11-18T16:31:08.973Z,-3.92
2022-11-18T16:33:38.995Z,-3.93
2022-11-18T16:36:09.112Z,-3.96
2022-11-18T16:38:39.170Z,-3.98
2022-11-18T16:41:28.526Z,-4.04
2022-11-18T16:44:09.921Z,-4.13
2022-11-18T16:46:52.193Z,-4.18
2022-11-18T16:49:27.081Z,-4.23
2022-11-18T16:51:57.951Z,-4.26
2022-11-18T16:54:32.335Z,-4.29
2022-11-18T16:57:02.439Z,-4.33
2022-11-18T16:59:32.501Z,-4.38
2022-11-18T17:02:03.242Z,-4.41
2022-11-18T17:04:36.318Z,-4.44
2022-11-18T17:07:06.729Z,-4.46
2022-11-18T17:09:37.234Z,-4.48
2022-11-18T17:12:11.733Z,-4.52
2022-11-18T17:14:40.988Z,-4.55
2022-11-18T17:17:09.698Z,-4.58
2022-11-18T17:19:39.876Z,-4.60
2022-11-18T17:22:10.095Z,-4.64
2022-11-18T17:24:40.212Z,-4.67
2022-11-18T17:27:10.411Z,-4.68
2022-11-18T17:29:40.690Z,-4.70
2022-11-18T17:32:11.049Z,-4.72
2022-11-18T17:34:41.135Z,-4.73
2022-11-18T17:37:11.397Z,-4.74
2022-11-18T17:39:41.591Z,-4.75
2022-11-18T17:42:15.579Z,-4.77
2022-11-18T17:44:44.634Z,-4.76
2022-11-18T17:47:12.266Z,-4.75
2022-11-18T17:49:41.137Z,-4.77
2022-11-18T17:52:09.719Z,-4.75
2022-11-18T17:54:37.603Z,-4.78
2022-11-18T17:57:06.097Z,-4.81
2022-11-18T17:59:34.577Z,-4.83
2022-11-18T18:02:03.109Z,-4.86
2022-11-18T18:04:31.476Z,-4.89
2022-11-18T18:06:59.963Z,-4.88
2022-11-18T18:09:31.034Z,-4.93
2022-11-18T18:12:21.439Z,-4.95
2022-11-18T18:14:51.315Z,-4.94
2022-11-18T18:17:21.564Z,-4.97
2022-11-18T18:19:51.504Z,-5.00
2022-11-18T18:22:21.144Z,-5.00
2022-11-18T18:24:50.919Z,-5.02
2022-11-18T18:27:20.785Z,-5.05
2022-11-18T18:29:50.551Z,-5.07
2022-11-18T18:32:20.579Z,-5.09
2022-11-18T18:34:50.369Z,-5.07
2022-11-18T18:37:20.352Z,-5.11
2022-11-18T18:39:50.061Z,-5.16
2022-11-18T18:42:19.997Z,-5.17
2022-11-18T18:45:08.327Z,-5.23
2022-11-18T18:47:37.950Z,-5.24
2022-11-18T18:50:07.871Z,-5.25
2022-11-18T18:52:37.865Z,-5.25
2022-11-18T18:55:08.077Z,-5.27
2022-11-18T18:57:38.153Z,-5.35
2022-11-18T19:00:09.829Z,-5.36
2022-11-18T19:02:39.128Z,-5.37
2022-11-18T19:05:09.209Z,-5.35
2022-11-18T19:07:43.020Z,-5.37
2022-11-18T19:10:11.965Z,-5.39
2022-11-18T19:12:46.797Z,-5.40
2022-11-18T19:15:16.722Z,-5.45
2022-11-18T19:17:47.586Z,-5.45
2022-11-18T19:20:36.903Z,-5.47
2022-11-18T19:23:12.257Z,-5.48
2022-11-18T19:25:40.123Z,-5.48
2022-11-18T19:28:08.319Z,-5.48
2022-11-18T19:30:38.498Z,-5.52
2022-11-18T19:33:07.612Z,-5.51
2022-11-18T19:35:37.805Z,-5.52
2022-11-18T19:38:07.673Z,-5.53
2022-11-18T19:40:37.388Z,-5.54
2022-11-18T19:43:07.152Z,-5.54
2022-11-18T19:45:36.862Z,-5.57
2022-11-18T19:48:06.572Z,-5.60
2022-11-18T19:50:36.316Z,-5.62
2022-11-18T19:53:26.037Z,-5.64
2022-11-18T19:56:04.512Z,-5.66
2022-11-18T19:58:37.111Z,-5.70
2022-11-18T20:01:29.281Z,-5.71
2022-11-18T20:04:03.179Z,-5.72
2022-11-18T20:06:36.828Z,-5.73
2022-11-18T20:09:10.121Z,-5.73
2022-11-18T20:11:40.891Z,-5.73
2022-11-18T20:14:12.952Z,-5.78
2022-11-18T20:16:43.069Z,-5.82
2022-11-18T20:19:13.821Z,-5.84
2022-11-18T20:21:44.492Z,-5.83
2022-11-18T20:24:18.906Z,-5.84
2022-11-18T20:26:48.970Z,-5.84
2022-11-18T20:29:19.237Z,-5.87
2022-11-18T20:31:49.404Z,-5.88
2022-11-18T20:34:19.460Z,-5.88
2022-11-18T20:36:51.903Z,-5.90
2022-11-18T20:39:22.232Z,-5.90
2022-11-18T20:42:12.611Z,-5.90
2022-11-18T20:44:41.050Z,-5.93
2022-11-18T20:47:10.667Z,-5.97
2022-11-18T20:49:37.792Z,-6.00
2022-11-18T20:52:07.669Z,-6.03
2022-11-18T20:54:37.402Z,-6.03
2022-11-18T20:57:07.183Z,-6.04
2022-11-18T20:59:36.960Z,-6.07
2022-11-18T21:02:06.943Z,-6.06
2022-11-18T21:04:36.740Z,-6.08
2022-11-18T21:07:06.632Z,-6.07
2022-11-18T21:09:36.284Z,-6.09
2022-11-18T21:12:11.142Z,-6.09
2022-11-18T21:14:39.719Z,-6.08
2022-11-18T21:17:09.459Z,-6.13
2022-11-18T21:19:39.300Z,-6.14
2022-11-18T21:22:09.153Z,-6.15
2022-11-18T21:24:38.831Z,-6.19
2022-11-18T21:27:08.818Z,-6.22
2022-11-18T21:29:39.517Z,-6.25
2022-11-18T21:32:08.434Z,-6.26
2022-11-18T21:34:38.206Z,-6.25
2022-11-18T21:37:07.960Z,-6.27
2022-11-18T21:39:37.677Z,-6.29
2022-11-18T21:42:11.722Z,-6.30
2022-11-18T21:44:42.134Z,-6.28
2022-11-18T21:47:10.527Z,-6.27
2022-11-18T21:49:38.941Z,-6.27
2022-11-18T21:52:07.682Z,-6.28
2022-11-18T21:54:39.115Z,-6.29
2022-11-18T21:57:09.139Z,-6.33
2022-11-18T21:59:37.589Z,-6.35
2022-11-18T22:02:06.506Z,-6.36
2022-11-18T22:04:52.563Z,-6.35
2022-11-18T22:07:25.829Z,-6.35
2022-11-18T22:09:55.563Z,-6.35
2022-11-18T22:12:25.549Z,-6.35
2022-11-18T22:14:55.380Z,-6.37
2022-11-18T22:17:25.167Z,-6.38
2022-11-18T22:19:55.036Z,-6.40
2022-11-18T22:22:24.922Z,-6.43
2022-11-18T22:24:54.680Z,-6.48
2022-11-18T22:27:24.858Z,-6.54
2022-11-18T22:29:54.759Z,-6.57
2022-11-18T22:32:24.958Z,-6.57
2022-11-18T22:34:54.515Z,-6.57
2022-11-18T22:37:24.212Z,-6.57
2022-11-18T22:39:53.938Z,-6.61
2022-11-18T22:42:42.680Z,-6.62
2022-11-18T22:45:12.178Z,-6.62
2022-11-18T22:47:43.353Z,-6.64
2022-11-18T22:50:13.477Z,-6.62
2022-11-18T22:52:43.944Z,-6.65
2022-11-18T22:55:14.111Z,-6.69
2022-11-18T22:57:45.272Z,-6.71
2022-11-18T23:00:16.992Z,-6.71
2022-11-18T23:02:48.808Z,-6.72
2022-11-18T23:05:18.817Z,-6.76
2022-11-18T23:07:48.884Z,-6.80
2022-11-18T23:10:18.972Z,-6.82
2022-11-18T23:13:07.495Z,-6.81
2022-11-18T23:15:37.556Z,-6.82
2022-11-18T23:18:11.519Z,-6.80
2022-11-18T23:20:42.108Z,-6.79
2022-11-18T23:23:12.200Z,-6.81
2022-11-18T23:25:45.070Z,-6.84
2022-11-18T23:28:15.149Z,-6.85
2022-11-18T23:30:45.291Z,-6.86
2022-11-18T23:33:15.463Z,-6.86
2022-11-18T23:35:53.058Z,-6.87
2022-11-18T23:38:23.188Z,-6.89
2022-11-18T23:41:06.839Z,-6.93
2022-11-18T23:43:36.547Z,-6.99
2022-11-18T23:46:09.850Z,-7.01
2022-11-18T23:48:43.596Z,-7.03
2022-11-18T23:51:21.286Z,-7.02
2022-11-18T23:53:57.489Z,-7.05
2022-11-18T23:56:37.488Z,-7.06
2022-11-18T23:59:08.391Z,-7.07
